createdAt,value
2023-11-24T00:00:31.596Z,9.41
2023-11-24T00:05:34.760Z,9.35
2023-11-24T00:10:38.481Z,9.43
2023-11-24T00:15:44.333Z,9.47
2023-11-24T00:20:48.819Z,9.49
2023-11-24T00:25:52.328Z,9.56
2023-11-24T00:30:56.817Z,9.55
2023-11-24T00:36:02.000Z,9.49
2023-11-24T00:41:06.021Z,9.49
2023-11-24T00:46:11.883Z,9.50
2023-11-24T00:51:16.923Z,9.57
2023-11-24T00:56:20.225Z,9.53
2023-11-24T01:01:25.070Z,9.53
2023-11-24T01:06:28.574Z,9.33
2023-11-24T01:11:31.862Z,8.77
2023-11-24T01:16:36.635Z,8.51
2023-11-24T01:21:40.522Z,8.36
2023-11-24T01:26:43.998Z,8.19
2023-11-24T01:31:48.516Z,8.01
2023-11-24T01:36:52.112Z,7.85
2023-11-24T01:41:55.614Z,7.84
2023-11-24T01:47:00.346Z,7.73
2023-11-24T01:52:06.173Z,7.65
2023-11-24T01:57:11.144Z,7.63
2023-11-24T02:02:16.601Z,7.51
2023-11-24T02:07:19.849Z,7.50
2023-11-24T02:12:24.215Z,7.40
2023-11-24T02:17:38.321Z,7.48
2023-11-24T02:22:44.176Z,7.40
2023-11-24T02:27:47.693Z,7.36
2023-11-24T02:32:51.236Z,7.28
2023-11-24T02:37:56.161Z,7.25
2023-11-24T02:42:59.332Z,7.18
2023-11-24T02:48:02.526Z,7.10
2023-11-24T02:53:06.993Z,6.89
2023-11-24T02:58:10.246Z,6.65
2023-11-24T03:03:13.804Z,6.61
2023-11-24T03:08:18.357Z,6.53
2023-11-24T03:13:21.436Z,6.57
2023-11-24T03:18:25.283Z,6.53
2023-11-24T03:23:29.740Z,6.58
2023-11-24T03:28:35.572Z,6.56
2023-11-24T03:33:38.746Z,6.52
2023-11-24T03:38:43.613Z,6.48
2023-11-24T03:43:47.108Z,6.40
2023-11-24T03:48:50.373Z,6.29
2023-11-24T03:53:55.323Z,6.06
2023-11-24T03:58:58.431Z,6.01
2023-11-24T04:04:01.643Z,5.61
2023-11-24T04:09:07.208Z,5.38
2023-11-24T04:14:10.393Z,5.20
2023-11-24T04:19:13.636Z,5.04
2023-11-24T04:24:18.086Z,4.95
2023-11-24T04:29:22.683Z,4.83
2023-11-24T04:34:26.338Z,4.54
2023-11-24T04:39:31.181Z,4.34
2023-11-24T04:44:34.880Z,4.23
2023-11-24T04:49:37.980Z,4.03
2023-11-24T04:54:42.877Z,4.12
2023-11-24T04:59:46.003Z,3.90
2023-11-24T05:04:49.434Z,3.99
2023-11-24T05:09:53.952Z,4.08
2023-11-24T05:14:58.508Z,4.22
2023-11-24T05:20:02.035Z,4.24
2023-11-24T05:25:08.098Z,4.32
2023-11-24T05:30:12.969Z,4.43
2023-11-24T05:35:17.283Z,4.48
2023-11-24T05:40:21.753Z,4.59
2023-11-24T05:45:24.995Z,4.69
2023-11-24T05:50:28.068Z,4.78
2023-11-24T05:55:32.848Z,4.92
2023-11-24T06:00:36.834Z,4.95
2023-11-24T06:05:40.259Z,5.00
2023-11-24T06:10:44.742Z,5.01
2023-11-24T06:15:47.928Z,5.11
2023-11-24T06:20:51.042Z,5.25
2023-11-24T06:25:55.494Z,5.37
2023-11-24T06:30:58.656Z,5.36
2023-11-24T06:36:02.461Z,5.36
2023-11-24T06:41:09.569Z,5.30
2023-11-24T06:46:13.529Z,5.28
2023-11-24T06:51:16.781Z,5.43
2023-11-24T06:56:21.254Z,5.54
2023-11-24T07:01:33.892Z,5.59
2023-11-24T07:06:37.344Z,5.64
2023-11-24T07:11:43.183Z,5.71
2023-11-24T07:16:46.846Z,5.75
2023-11-24T07:21:49.992Z,5.82
2023-11-24T07:26:55.970Z,5.85
2023-11-24T07:31:59.415Z,5.87
2023-11-24T07:37:03.138Z,5.89
2023-11-24T07:42:07.730Z,5.94
2023-11-24T07:47:15.580Z,6.02
2023-11-24T07:52:18.676Z,6.01
2023-11-24T07:57:26.054Z,6.04
2023-11-24T08:02:29.998Z,6.04
2023-11-24T08:07:33.845Z,5.97
2023-11-24T08:12:38.362Z,6.06
2023-11-24T08:17:42.110Z,6.13
2023-11-24T08:22:45.703Z,6.07
2023-11-24T08:27:50.626Z,6.05
2023-11-24T08:32:54.317Z,6.17
2023-11-24T08:37:57.756Z,6.46
2023-11-24T08:43:02.783Z,6.89
2023-11-24T08:48:06.768Z,7.20
2023-11-24T08:53:09.909Z,7.85
2023-11-24T08:58:16.297Z,9.09
2023-11-24T09:03:19.903Z,10.10
2023-11-24T09:08:22.989Z,10.63
2023-11-24T09:13:28.358Z,10.00
2023-11-24T09:18:32.263Z,9.28
2023-11-24T09:23:36.240Z,9.47
2023-11-24T09:28:40.736Z,8.94
2023-11-24T09:33:43.835Z,8.59
2023-11-24T09:38:49.754Z,9.62
2023-11-24T09:43:55.157Z,9.49
2023-11-24T09:49:00.092Z,9.03
2023-11-24T09:54:04.841Z,9.44
2023-11-24T09:59:11.110Z,9.20
2023-11-24T10:04:16.068Z,8.52
2023-11-24T10:09:26.614Z,7.86
2023-11-24T10:14:32.216Z,7.28
2023-11-24T10:19:37.356Z,7.04
2023-11-24T10:24:40.981Z,6.82
2023-11-24T10:29:45.722Z,6.78
2023-11-24T10:34:48.945Z,6.73
2023-11-24T10:39:55.769Z,7.41
2023-11-24T10:45:06.727Z,7.36
2023-11-24T10:50:14.207Z,6.92
2023-11-24T10:55:17.672Z,6.84
2023-11-24T11:00:23.457Z,6.94
2023-11-24T11:05:48.060Z,7.52
2023-11-24T11:11:13.671Z,7.49
2023-11-24T11:16:21.038Z,7.27
2023-11-24T11:21:39.003Z,7.91
2023-11-24T11:26:49.996Z,7.79
2023-11-24T11:31:56.903Z,7.52
2023-11-24T11:37:12.260Z,7.25
2023-11-24T11:42:15.906Z,7.18
2023-11-24T11:47:22.983Z,7.00
2023-11-24T11:52:29.286Z,7.24
2023-11-24T11:57:32.615Z,7.88
2023-11-24T12:02:38.051Z,8.60
2023-11-24T12:07:41.597Z,9.31
2023-11-24T12:12:45.836Z,9.79
2023-11-24T12:17:50.578Z,10.57
2023-11-24T12:22:54.136Z,9.85
2023-11-24T12:27:58.839Z,9.20
2023-11-24T12:33:05.003Z,8.47
2023-11-24T12:38:08.144Z,8.38
2023-11-24T12:43:13.266Z,8.28
2023-11-24T12:48:21.126Z,7.39
2023-11-24T12:53:25.264Z,6.63
2023-11-24T12:58:28.793Z,6.30
2023-11-24T13:03:33.254Z,6.12
2023-11-24T13:08:36.493Z,6.14
2023-11-24T13:13:39.596Z,5.84
2023-11-24T13:18:44.624Z,5.66
2023-11-24T13:23:47.759Z,5.60
2023-11-24T13:28:52.310Z,5.47
2023-11-24T13:33:57.010Z,5.41
2023-11-24T13:39:01.286Z,5.22
2023-11-24T13:44:05.230Z,4.82
2023-11-24T13:49:10.594Z,4.32
2023-11-24T13:54:15.051Z,4.05
2023-11-24T13:59:18.557Z,3.85
2023-11-24T14:04:23.402Z,3.92
2023-11-24T14:09:32.629Z,4.11
2023-11-24T14:14:36.006Z,3.85
2023-11-24T14:19:40.713Z,3.76
2023-11-24T14:24:43.971Z,3.71
2023-11-24T14:29:47.088Z,3.72
2023-11-24T14:34:52.373Z,3.72
2023-11-24T14:39:55.903Z,3.66
2023-11-24T14:44:59.952Z,3.65
2023-11-24T14:50:06.458Z,3.54
2023-11-24T14:55:12.980Z,3.58
2023-11-24T15:00:30.481Z,3.48
2023-11-24T15:05:35.456Z,3.53
2023-11-24T15:10:39.083Z,3.44
2023-11-24T15:15:44.356Z,3.31
2023-11-24T15:20:49.606Z,3.25
2023-11-24T15:25:54.025Z,3.20
2023-11-24T15:30:57.950Z,3.21
2023-11-24T15:36:05.234Z,3.25
2023-11-24T15:41:08.394Z,3.24
2023-11-24T15:46:19.432Z,3.16
2023-11-24T15:51:23.963Z,3.20
2023-11-24T15:56:29.398Z,3.27
2023-11-24T16:01:38.040Z,3.56
2023-11-24T16:06:46.718Z,3.61
2023-11-24T16:12:01.826Z,3.57
2023-11-24T16:17:06.034Z,3.37
2023-11-24T16:22:15.801Z,3.08
2023-11-24T16:27:19.953Z,2.78
2023-11-24T16:32:23.474Z,2.60
2023-11-24T16:37:28.769Z,2.49
2023-11-24T16:42:32.466Z,2.32
2023-11-24T16:47:36.199Z,2.44
2023-11-24T16:52:47.363Z,2.46
2023-11-24T16:57:51.449Z,2.43
2023-11-24T17:02:54.668Z,2.53
2023-11-24T17:07:59.734Z,2.61
2023-11-24T17:13:05.750Z,2.46
2023-11-24T17:18:11.201Z,2.43
2023-11-24T17:23:17.455Z,2.54
2023-11-24T17:28:21.667Z,2.47
2023-11-24T17:33:24.794Z,2.55
2023-11-24T17:38:29.892Z,2.65
2023-11-24T17:43:33.046Z,2.63
2023-11-24T17:48:37.308Z,2.65
2023-11-24T17:53:44.182Z,2.67
2023-11-24T17:58:47.487Z,2.82
2023-11-24T18:03:50.754Z,2.78
2023-11-24T18:08:57.782Z,2.70
2023-11-24T18:14:01.633Z,2.71
2023-11-24T18:19:05.285Z,2.62
2023-11-24T18:24:10.097Z,2.56
2023-11-24T18:29:15.003Z,2.44
2023-11-24T18:34:18.211Z,2.36
2023-11-24T18:39:22.656Z,2.24
2023-11-24T18:44:27.511Z,2.23
2023-11-24T18:49:31.065Z,2.23
2023-11-24T18:54:35.623Z,2.16
2023-11-24T18:59:38.765Z,2.30
2023-11-24T19:04:41.919Z,2.29
2023-11-24T19:09:47.359Z,2.39
2023-11-24T19:14:50.835Z,2.30
2023-11-24T19:19:53.923Z,2.27
2023-11-24T19:24:58.529Z,2.24
2023-11-24T19:30:01.656Z,2.13
2023-11-24T19:35:07.403Z,2.20
2023-11-24T19:40:13.699Z,2.09
2023-11-24T19:45:17.969Z,2.01
2023-11-24T19:50:21.509Z,2.15
2023-11-24T19:55:26.273Z,2.15
2023-11-24T20:00:29.438Z,2.24
2023-11-24T20:05:32.580Z,2.34
2023-11-24T20:10:39.445Z,2.47
2023-11-24T20:15:44.905Z,2.43
2023-11-24T20:20:48.303Z,2.36
2023-11-24T20:25:54.099Z,2.34
2023-11-24T20:30:57.901Z,2.29
2023-11-24T20:36:01.009Z,2.19
2023-11-24T20:41:06.002Z,2.14
2023-11-24T20:46:09.279Z,2.21
2023-11-24T20:51:13.720Z,2.31
2023-11-24T20:56:18.263Z,2.38
2023-11-24T21:01:22.740Z,2.53
2023-11-24T21:06:25.964Z,2.58
2023-11-24T21:11:31.540Z,2.73
2023-11-24T21:16:34.796Z,2.60
2023-11-24T21:21:37.917Z,2.48
2023-11-24T21:26:43.142Z,2.40
2023-11-24T21:31:46.505Z,2.46
2023-11-24T21:36:50.140Z,2.50
2023-11-24T21:41:54.624Z,2.55
2023-11-24T21:46:59.404Z,2.58
2023-11-24T21:52:02.785Z,2.51
2023-11-24T21:57:07.350Z,2.55
2023-11-24T22:02:10.648Z,2.55
2023-11-24T22:07:14.897Z,2.57
2023-11-24T22:12:19.354Z,2.59
2023-11-24T22:17:22.862Z,2.61
2023-11-24T22:22:26.474Z,2.75
2023-11-24T22:27:31.473Z,2.64
2023-11-24T22:32:36.113Z,2.50
2023-11-24T22:37:39.959Z,2.41
2023-11-24T22:42:44.412Z,2.19
2023-11-24T22:47:48.066Z,1.96
2023-11-24T22:52:51.249Z,1.96
2023-11-24T22:57:56.089Z,1.81
2023-11-24T23:03:00.708Z,1.63
2023-11-24T23:08:04.649Z,1.53
2023-11-24T23:13:09.485Z,1.55
2023-11-24T23:18:13.228Z,1.56
2023-11-24T23:23:16.348Z,1.48
2023-11-24T23:28:21.482Z,1.52
2023-11-24T23:33:24.651Z,1.47
2023-11-24T23:38:28.148Z,1.45
2023-11-24T23:43:33.360Z,1.41
2023-11-24T23:48:36.833Z,1.19
2023-11-24T23:53:40.644Z,1.22
2023-11-24T23:58:45.637Z,1.30
